Airfield :
LOGIN :

Register | Disclaimer

   EN    FR    IT 

 










Legend :    VFR   Marginal VFR   IFR   Intensive IFR   Very Intensive IFR
Visi :
Ceiling :
>= 8 km
>= 3000ft
5 to 8 km
1000 to 3000 ft
1500m to 5 km
500 to 1000 ft
800 to 1500m
200 to 500 ft
< 800m
< 200 ft
Symbols :   Thunderstorms  Fog  Heavy snow  Heavy precipitations  Wind > 20 kt
SIGMETs :     Misc.  Thunderstorms  Icing  Turbulence  Mountain Waves  Volcanic Ashes






- Airport Elevation : 63 ft
- IATA code : BZM


EHWO - Woensdrecht Airbase

CURRENT METAR :
  • 111125Z AUTO VRB03KT 9999 BKN100 OVC180 31/18 Q1014 BLU NOSIG

EXPIRED METARs :
  • 111108Z AUTO VRB03KT 9999 SCT100 BKN240 OVC290 31/18 Q1014 BLU NOSIG
  • 111055Z AUTO VRB04KT 9999 BKN100 OVC220 31/18 Q1014 BLU
  • 111025Z AUTO VRB03KT 9999 BKN250 OVC340 31/19 Q1014 BLU
  • 110955Z AUTO 08004KT 020V180 9999 OVC160 30/19 Q1014 BLU
  • 110933Z AUTO 11003KT 060V200 9999 OVC160 29/19 Q1014 BLU
  • 110925Z AUTO 12004KT 080V180 9999 OVC160 29/19 Q1014 BLU NOSIG
  • 110855Z AUTO 07005KT 360V170 9999 OVC170 28/19 Q1014 BLU NOSIG

TAF TAF EHWO
Valid from the 11 at 09:00 until the 11 at 21:00 UTC


110818Z 1109/1121 09005KT CAVOK
BECMG 1109/1112 18006KT
PROB40
TEMPO 1113/1121 VRB20G30KT 4000 TSRA SCT060CB BKN100
PROB30
TEMPO 1113/1121 VRB25G35KT 2500 TSRAGR SCT050CB BKN090



MET'MAP, your aeronautical weather chart ! - Copyright ORBIFLY December 2007 - Disclaimer

ORBIFLY MET'MAP TEAM :

Programming & Development : Alexandra Zaïnal
Concept & original design : Baudouin d'Aumeries
Assistance for programming : Marc-Olivier Méhu
Technical & hardware support : Manuel Goepfert

Contact : metmap@orbifly.com




SOURCES & CREDITS :

   NOAA